Terminal Aerodrome Forecast
Issued by NWS Portland, ME

Home | Current Version | Previous Version | Text Only | Print | Product List | Glossary On
Versions: 1 2 3 4 5 6 7 8 9 10 11 12 13 14 15 16 17 18
347
FTUS41 KGYX 012323
TAFPWM
TAF
KPWM 012323Z 0200/0224 17007KT P6SM -SHRA SCT025 BKN045 OVC080
     FM020600 10005KT 5SM -DZ BR BKN012 OVC025
     FM021200 07006KT 2SM -RADZ BR OVC004
     FM021800 06006KT 1 1/2SM RA BR OVC006=

USA.gov is the U.S. government's official web portal to all federal, state and local government web resources and services.